20 mai 2022

Temps Code Temps Temp. Vue Des nuages Vent METAR/SPECI
18:30
V
28 °C 10 km+ - 260°   260° 5 kt METAR LFSL 201630Z AUTO 26005KT 200V300 CAVOK 28/17 Q1023 NOSIG
18:00
V
28 °C 10 km+ - 270°   270° 6 kt METAR LFSL 201600Z AUTO 27006KT 200V330 CAVOK 28/16 Q1023 NOSIG
17:30
V
28 °C 10 km+ - 260°   260° 6 kt METAR LFSL 201530Z AUTO 26006KT 190V320 CAVOK 28/16 Q1023 NOSIG
17:00
V
29 °C 10 km+ - 260°   260° 4 kt METAR LFSL 201500Z AUTO 26004KT 180V330 CAVOK 29/15 Q1023 NOSIG
16:30
V
29 °C 10 km+ - 240°   240° 5 kt METAR LFSL 201430Z AUTO 24005KT 180V310 CAVOK 29/15 Q1023 NOSIG
16:00
V
29 °C 10 km+ - 230°   230° 5 kt METAR LFSL 201400Z AUTO 23005KT 160V330 CAVOK 29/14 Q1023 NOSIG
15:30
V
28 °C 10 km+ - 240°   240° 5 kt METAR LFSL 201330Z AUTO 24005KT 170V310 CAVOK 28/15 Q1022 NOSIG
15:00
V
28 °C 10 km+ - 260°   260° 5 kt METAR LFSL 201300Z AUTO 26005KT 210V300 CAVOK 28/16 Q1022 NOSIG
14:30
V
28 °C 10 km+ - 220°   220° 6 kt METAR LFSL 201230Z AUTO 22006KT 180V290 CAVOK 28/15 Q1022 NOSIG
14:00
V
29 °C 10 km+ - Var   Var 5 kt METAR LFSL 201200Z AUTO VRB05KT CAVOK 29/15 Q1022 NOSIG
13:30
V
29 °C 10 km+ - 220°   220° 5 kt METAR LFSL 201130Z AUTO 22005KT 170V300 CAVOK 29/15 Q1022 NOSIG
13:00
V
28 °C 10 km+ - 200°   200° 6 kt METAR LFSL 201100Z AUTO 20006KT 170V270 CAVOK 28/14 Q1022 NOSIG
12:30
V
28 °C 10 km+ - 160°   160° 7 kt METAR LFSL 201030Z AUTO 16007KT 120V220 CAVOK 28/13 Q1021 NOSIG
12:00
V
27 °C 10 km+ - 180°   180° 8 kt METAR LFSL 201000Z AUTO 18008KT 130V220 CAVOK 27/13 Q1021 NOSIG
11:30
V
27 °C 10 km+ - 170°   170° 9 kt METAR LFSL 200930Z AUTO 17009KT 150V220 CAVOK 27/11 Q1021 NOSIG
11:00
V
26 °C 10 km+ - 160°   160° 12 kt METAR LFSL 200900Z AUTO 16012KT 120V200 CAVOK 26/11 Q1021 NOSIG
10:30
V
25 °C 10 km+ - 170°   170° 10 kt METAR LFSL 200830Z AUTO 17010KT 140V230 CAVOK 25/11 Q1021 NOSIG
10:00
V
24 °C 10 km+ - 180°   180° 9 kt METAR LFSL 200800Z AUTO 18009KT 150V220 CAVOK 24/11 Q1021 NOSIG
09:30
V
24 °C 10 km+ - 140°   140° 8 kt METAR LFSL 200730Z AUTO 14008KT 100V170 CAVOK 24/11 Q1020 NOSIG
09:00
V
23 °C 10 km+ - 140°   140° 6 kt METAR LFSL 200700Z AUTO 14006KT 100V170 CAVOK 23/11 Q1020 NOSIG
08:30
V
22 °C 10 km+ - 140°   140° 6 kt METAR LFSL 200630Z AUTO 14006KT 110V170 CAVOK 22/10 Q1020 NOSIG
08:00
V
21 °C 10 km+ - 140°   140° 9 kt METAR LFSL 200600Z AUTO 14009KT 110V180 CAVOK 21/09 Q1019 NOSIG
07:30
V
20 °C 10 km+ - 140°   140° 10 kt METAR LFSL 200530Z AUTO 14010KT CAVOK 20/09 Q1019 NOSIG
07:00
V
20 °C 10 km+ - 140°   140° 9 kt METAR LFSL 200500Z AUTO 14009KT CAVOK 20/08 Q1019 NOSIG
06:30
V
20 °C 10 km+ - 140°   140° 9 kt METAR LFSL 200430Z AUTO 14009KT 110V170 CAVOK 20/08 Q1019 NOSIG
06:00
V
20 °C 10 km+ - 140°   140° 7 kt METAR LFSL 200400Z AUTO 14007KT CAVOK 20/08 Q1019 NOSIG
05:30
V
20 °C 10 km+ - 140°   140° 8 kt METAR LFSL 200330Z AUTO 14008KT 110V170 CAVOK 20/08 Q1019 NOSIG
05:00
V
20 °C 10 km+ - 150°   150° 7 kt METAR LFSL 200300Z AUTO 15007KT 120V180 CAVOK 20/08 Q1019
04:30
V
20 °C 10 km+ - 140°   140° 6 kt METAR LFSL 200230Z AUTO 14006KT 120V180 CAVOK 20/08 Q1019
04:00
V
20 °C 10 km+ - 140°   140° 6 kt METAR LFSL 200200Z AUTO 14006KT CAVOK 20/09 Q1019
03:30
V
20 °C 10 km+ - 140°   140° 6 kt METAR LFSL 200130Z AUTO 14006KT CAVOK 20/09 Q1019
03:00
V
21 °C 10 km+ - 140°   140° 6 kt METAR LFSL 200100Z AUTO 14006KT CAVOK 21/09 Q1019
02:30
V
21 °C 10 km+ - 140°   140° 5 kt METAR LFSL 200030Z AUTO 14005KT CAVOK 21/09 Q1020
02:00
V
21 °C 10 km+ - 150°   150° 5 kt METAR LFSL 200000Z AUTO 15005KT CAVOK 21/09 Q1020
01:30
V
22 °C 10 km+ - 140°   140° 6 kt METAR LFSL 192330Z AUTO 14006KT 120V180 CAVOK 22/09 Q1020
01:00
V
22 °C 10 km+ - 150°   150° 5 kt METAR LFSL 192300Z AUTO 15005KT 110V180 CAVOK 22/09 Q1020
00:30
V
22 °C 10 km+ - 140°   140° 8 kt METAR LFSL 192230Z AUTO 14008KT CAVOK 22/10 Q1020
00:00
V
22 °C 10 km+ - 140°   140° 6 kt METAR LFSL 192200Z AUTO 14006KT CAVOK 22/10 Q1020

19 mai 2022

Temps Code Temps Temp. Vue Des nuages Vent METAR/SPECI
23:30
V
23 °C 10 km+ - 150°   150° 8 kt METAR LFSL 192130Z AUTO 15008KT 120V180 CAVOK 23/10 Q1020
23:00
V
23 °C 10 km+ - 140°   140° 9 kt METAR LFSL 192100Z AUTO 14009KT 110V170 CAVOK 23/11 Q1020
22:30
V
24 °C 10 km+ - 140°   140° 8 kt METAR LFSL 192030Z AUTO 14008KT 110V170 CAVOK 24/11 Q1020
22:00
V
25 °C 10 km+ - 140°   140° 7 kt METAR LFSL 192000Z AUTO 14007KT 110V180 CAVOK 25/12 Q1020 NOSIG
21:30
V
25 °C 10 km+ - 140°   140° 6 kt METAR LFSL 191930Z AUTO 14006KT CAVOK 25/13 Q1020 NOSIG
21:00
V
26 °C 10 km+ - 140°   140° 6 kt METAR LFSL 191900Z AUTO 14006KT 120V190 CAVOK 26/14 Q1020 NOSIG
20:30
V
27 °C 10 km+ - 140°   140° 5 kt METAR LFSL 191830Z AUTO 14005KT 110V180 CAVOK 27/15 Q1020 NOSIG
20:00
V
28 °C 10 km+ - 140°   140° 7 kt METAR LFSL 191800Z AUTO 14007KT 100V170 CAVOK 28/15 Q1019 NOSIG
19:30
V
29 °C 10 km+ - 130°   130° 8 kt METAR LFSL 191730Z AUTO 13008KT 100V160 CAVOK 29/15 Q1019 NOSIG
19:00
V
29 °C 10 km+ - 130°   130° 8 kt METAR LFSL 191700Z AUTO 13008KT 100V170 CAVOK 29/15 Q1019 NOSIG
18:30
V
29 °C 10 km+ - 130°   130° 9 kt METAR LFSL 191630Z AUTO 13009KT 110V180 CAVOK 29/16 Q1020 NOSIG
18:00
V
29 °C 10 km+ - 120°   120° 7 kt METAR LFSL 191600Z AUTO 12007KT 090V180 CAVOK 29/16 Q1020 NOSIG
17:30
V
29 °C 10 km+ - 150°   150° 7 kt METAR LFSL 191530Z AUTO 15007KT 110V200 CAVOK 29/15 Q1020 NOSIG
17:00
V
29 °C 10 km+ - 160°   160° 7 kt METAR LFSL 191500Z AUTO 16007KT 090V200 CAVOK 29/15 Q1020 NOSIG
16:30
V
29 °C 10 km+ - Var   Var 4 kt METAR LFSL 191430Z AUTO VRB04KT 9999 FEW047 29/16 Q1020 NOSIG
16:00
V
28 °C 10 km+ - 190°   190° 3 kt METAR LFSL 191400Z AUTO 19003KT 140V250 CAVOK 28/17 Q1020 NOSIG
15:30
V
27 °C 10 km+ - Var   Var 3 kt METAR LFSL 191330Z AUTO VRB03KT CAVOK 27/16 Q1020 NOSIG
15:00
V
26 °C 10 km+ 12.000 ft 160°   160° 3 kt METAR LFSL 191300Z AUTO 16003KT 120V220 9999 FEW032/// BKN120/// ///CB 26/15 Q1021 BECMG NSC
14:30
V
26 °C 10 km+ - 160°   160° 7 kt METAR LFSL 191230Z AUTO 16007KT 110V200 9999 ///CB 26/15 Q1021 BECMG NSC
14:00
V
27 °C 10 km+ - 140°   140° 7 kt METAR LFSL 191200Z AUTO 14007KT 100V190 9999 ///CB 27/15 Q1021 BECMG NSC
13:30
V
26 °C 10 km+ - 180°   180° 6 kt METAR LFSL 191130Z AUTO 18006KT 110V240 9999 ///TCU 26/16 Q1021 BECMG NSC
13:00
V
25 °C 10 km+ - Var   Var 5 kt METAR LFSL 191100Z AUTO VRB05KT 9999 FEW037 25/15 Q1021 NOSIG
12:30
V
24 °C 10 km+ 15.000 ft 170°   170° 6 kt METAR LFSL 191030Z AUTO 17006KT 120V210 9999 SCT032/// SCT120/// BKN150/// ///TCU 24/16 Q1021 BECMG NSC
12:00
V
24 °C 10 km+ - Var   Var 3 kt METAR LFSL 191000Z AUTO VRB03KT 9999 SCT031 24/16 Q1021 NOSIG
11:30
V
23 °C 10 km+ - 140°   140° 8 kt METAR LFSL 190930Z AUTO 14008KT 090V220 9999 ///TCU 23/16 Q1021 BECMG NSC
11:00
V
22 °C 10 km+ 17.000 ft 130°   130° 9 kt METAR LFSL 190900Z AUTO 13009KT 9999 FEW014 BKN170 22/17 Q1021 TEMPO SCT015TCU
10:30
M
21 °C 10 km+ 1.500 ft Var   Var 3 kt METAR LFSL 190830Z AUTO VRB03KT 9999 BKN015/// BKN021/// BKN130/// ///TCU 21/17 Q1021 BECMG NSC
10:00
M
21 °C 10 km+ 1.400 ft 180°   180° 5 kt METAR LFSL 190800Z AUTO 18005KT 100V230 9999 BKN014 BKN160 21/17 Q1022 BECMG NSC
09:30
V
21 °C 10 km+ - 140°   140° 5 kt METAR LFSL 190730Z AUTO 14005KT 100V180 9999 FEW010 21/18 Q1021 TEMPO BKN003
09:00
V
19 °C 10 km+ - 160°   160° 3 kt METAR LFSL 190700Z AUTO 16003KT 120V200 CAVOK 19/17 Q1021 TEMPO BKN003
08:30
V
19 °C 10 km+ - Var   Var 2 kt METAR LFSL 190630Z AUTO VRB02KT 9999 FEW003 19/17 Q1021 TEMPO BKN004
08:00
L
17 °C 10 km+ 300 ft Var   Var 2 kt METAR LFSL 190600Z AUTO VRB02KT 9999 BKN003 17/17 Q1021 TEMPO NSC
07:30
L
17 °C 10 km+ 300 ft 260°   260° 3 kt METAR LFSL 190530Z AUTO 26003KT 150V320 9999 BKN003 17/16 Q1021 TEMPO NSC
07:00
V
17 °C 10 km+ - Var   Var 3 kt METAR LFSL 190500Z AUTO VRB03KT 9999 FEW007 SCT200 17/16 Q1021 NOSIG
06:30
V
18 °C 10 km+ - Var   Var 3 kt METAR LFSL 190430Z AUTO VRB03KT CAVOK 18/16 Q1020 NOSIG
06:00
V
18 °C 10 km+ - 200°   200° 5 kt METAR LFSL 190400Z AUTO 20005KT CAVOK 18/16 Q1019 NOSIG
05:30
V
19 °C 10 km+ - 090°   090° 5 kt METAR LFSL 190330Z AUTO 09005KT 070V130 CAVOK 19/16 Q1018 NOSIG
05:00
V
19 °C 10 km+ - 090°   090° 5 kt METAR LFSL 190300Z AUTO 09005KT 070V130 CAVOK 19/17 Q1018 NOSIG
04:30
V
19 °C 10 km+ - 150°   150° 5 kt METAR LFSL 190230Z AUTO 15005KT 110V180 9999 //////TCU 19/16 Q1019
04:00
V
19 °C 10 km+ - 110°   110° 7 kt METAR LFSL 190200Z AUTO 11007KT 080V170 9999 ///TCU 19/17 Q1019
03:30
V
19 °C 10 km+ - 100°   100° 5 kt METAR LFSL 190130Z AUTO 10005KT 9999 -RA ///CB 19/18 Q1019
03:00
V
19 °C 10 km+ - 300°   300° 5 kt METAR LFSL 190100Z AUTO 30005KT 260V330 9999 -RA ///CB 19/16 Q1019
02:30
V
20 °C 10 km+ - Var   Var 1 kt METAR LFSL 190030Z AUTO VRB01KT 9999 -RA //////CB 20/18 Q1020
02:00
V
21 °C 10 km+ 7.600 ft 270°   270° 6 kt METAR LFSL 190000Z AUTO 27006KT 210V310 9999 -RA VCTS FEW028/// BKN076/// BKN100/// ///CB 21/17 Q1020
01:30
V
21 °C 10 km+ - 220°   220° 4 kt METAR LFSL 182330Z AUTO 22004KT 140V300 9999 ///CB 21/16 Q1019
01:00
V
21 °C 10 km+ - Var   Var 3 kt METAR LFSL 182300Z AUTO VRB03KT 9999 ///TCU 21/17 Q1018
00:30
V
21 °C 10 km+ - 130°   130° 5 kt METAR LFSL 182230Z AUTO 13005KT CAVOK 21/17 Q1018
00:00
V
22 °C 10 km+ - 110°   110° 3 kt METAR LFSL 182200Z AUTO 11003KT CAVOK 22/17 Q1018

18 mai 2022

Temps Code Temps Temp. Vue Des nuages Vent METAR/SPECI
23:30
V
22 °C 10 km+ - 140°   140° 5 kt METAR LFSL 182130Z AUTO 14005KT 110V200 9999 ///CB 22/17 Q1018
23:00
V
21 °C 10 km+ - Var   000° 0 kt METAR LFSL 182100Z AUTO 00000KT 9999 ///CB 21/17 Q1017
22:30
V
21 °C 10 km+ - Var   000° 0 kt METAR LFSL 182030Z AUTO 00000KT CAVOK 21/17 Q1017
22:00
V
22 °C 10 km+ - Var   000° 0 kt METAR LFSL 182000Z AUTO 00000KT CAVOK 22/18 Q1017 TEMPO SCT060TCU FEW080CB
21:30
V
23 °C 10 km+ - Var   Var 1 kt METAR LFSL 181930Z AUTO VRB01KT CAVOK 23/18 Q1017 TEMPO SCT060TCU FEW080CB
21:00
V
25 °C 10 km+ - 140°   140° 1 kt METAR LFSL 181900Z AUTO 14001KT CAVOK 25/19 Q1017 NOSIG
20:30
V
27 °C 10 km+ - Var   000° 0 kt METAR LFSL 181830Z AUTO 00000KT CAVOK 27/19 Q1016 NOSIG
20:00
V
30 °C 10 km+ - Var   Var 1 kt METAR LFSL 181800Z AUTO VRB01KT CAVOK 30/17 Q1016 NOSIG
19:30
V
31 °C 10 km+ - Var   Var 2 kt METAR LFSL 181730Z AUTO VRB02KT CAVOK 31/15 Q1016 NOSIG
19:00
V
32 °C 10 km+ - Var   Var 3 kt METAR LFSL 181700Z AUTO VRB03KT CAVOK 32/14 Q1016 NOSIG
18:30
V
31 °C 10 km+ - Var   Var 4 kt METAR LFSL 181630Z AUTO VRB04KT CAVOK 31/15 Q1017 NOSIG
18:00
V
32 °C 10 km+ - 220°   220° 4 kt METAR LFSL 181600Z AUTO 22004KT 150V310 9999 ///CB 32/16 Q1017 BECMG NSC
17:30
V
31 °C 10 km+ - 230°   230° 4 kt METAR LFSL 181530Z AUTO 23004KT 150V300 CAVOK 31/16 Q1017 TEMPO SCT060TCU
17:00
V
31 °C 10 km+ - 210°   210° 6 kt METAR LFSL 181500Z AUTO 21006KT 180V260 CAVOK 31/16 Q1017 NOSIG
Données plus anciennes

Télécharge notre application

Un accès facile à toute la météo aéronautique sur ton téléphone portable et ta tablette.
Avec de nombreuses fonctionnalités non disponibles sur le site Web, comme la prise en charge hors ligne et une liste personnelle d'aéroports.

Nous et des tiers suivons ton comportement sur Internet sur notre site Web à l'aide de cookies. Si tu continues, nous supposons que tu acceptes notre politique en matière de cookies. Apprendre plus